sensor_id;sensor_type;location;lat;lon;timestamp;pressure;altitude;pressure_sealevel;temperature;humidity
37764;BME280;23602;51.084;7.090;2023-01-23T00:01:42;101901.50;;;0.73;100.00
37764;BME280;23602;51.084;7.090;2023-01-23T00:04:08;101901.31;;;0.76;100.00
37764;BME280;23602;51.084;7.090;2023-01-23T00:06:34;101899.59;;;0.75;100.00
37764;BME280;23602;51.084;7.090;2023-01-23T00:08:59;101902.97;;;0.77;100.00
37764;BME280;23602;51.084;7.090;2023-01-23T00:11:28;101902.03;;;0.78;100.00
37764;BME280;23602;51.084;7.090;2023-01-23T00:13:54;101895.03;;;0.77;100.00
37764;BME280;23602;51.084;7.090;2023-01-23T00:16:21;101898.66;;;0.76;100.00
37764;BME280;23602;51.084;7.090;2023-01-23T00:18:47;101892.38;;;0.77;100.00
37764;BME280;23602;51.084;7.090;2023-01-23T00:21:13;101894.09;;;0.78;100.00
37764;BME280;23602;51.084;7.090;2023-01-23T00:23:43;101890.72;;;0.76;100.00
37764;BME280;23602;51.084;7.090;2023-01-23T00:26:11;101896.00;;;0.76;100.00
37764;BME280;23602;51.084;7.090;2023-01-23T00:28:37;101900.34;;;0.77;100.00
37764;BME280;23602;51.084;7.090;2023-01-23T00:31:06;101891.78;;;0.73;100.00
37764;BME280;23602;51.084;7.090;2023-01-23T00:33:31;101894.50;;;0.72;100.00
37764;BME280;23602;51.084;7.090;2023-01-23T00:35:57;101896.31;;;0.71;100.00
37764;BME280;23602;51.084;7.090;2023-01-23T00:38:22;101895.56;;;0.69;100.00
37764;BME280;23602;51.084;7.090;2023-01-23T00:40:51;101900.03;;;0.69;100.00
37764;BME280;23602;51.084;7.090;2023-01-23T00:43:18;101895.47;;;0.71;100.00
37764;BME280;23602;51.084;7.090;2023-01-23T00:45:43;101897.59;;;0.66;100.00
37764;BME280;23602;51.084;7.090;2023-01-23T00:48:09;101889.09;;;0.60;100.00
37764;BME280;23602;51.084;7.090;2023-01-23T00:50:34;101901.47;;;0.60;100.00
37764;BME280;23602;51.084;7.090;2023-01-23T00:52:59;101904.63;;;0.52;100.00
37764;BME280;23602;51.084;7.090;2023-01-23T00:55:25;101905.03;;;0.46;100.00
37764;BME280;23602;51.084;7.090;2023-01-23T00:57:50;101906.94;;;0.44;100.00
37764;BME280;23602;51.084;7.090;2023-01-23T01:00:16;101910.63;;;0.42;100.00
37764;BME280;23602;51.084;7.090;2023-01-23T01:02:41;101902.16;;;0.37;100.00
37764;BME280;23602;51.084;7.090;2023-01-23T01:05:06;101917.28;;;0.35;100.00
37764;BME280;23602;51.084;7.090;2023-01-23T01:07:32;101913.06;;;0.32;100.00
37764;BME280;23602;51.084;7.090;2023-01-23T01:09:57;101913.34;;;0.28;100.00
37764;BME280;23602;51.084;7.090;2023-01-23T01:12:23;101918.53;;;0.29;100.00
37764;BME280;23602;51.084;7.090;2023-01-23T01:14:48;101924.66;;;0.30;100.00
37764;BME280;23602;51.084;7.090;2023-01-23T01:17:14;101930.59;;;0.33;100.00
37764;BME280;23602;51.084;7.090;2023-01-23T01:19:39;101939.50;;;0.32;100.00
37764;BME280;23602;51.084;7.090;2023-01-23T01:22:04;101930.59;;;0.33;100.00
37764;BME280;23602;51.084;7.090;2023-01-23T01:24:30;101940.13;;;0.36;100.00
37764;BME280;23602;51.084;7.090;2023-01-23T01:26:55;101934.75;;;0.37;100.00
37764;BME280;23602;51.084;7.090;2023-01-23T01:29:20;101935.69;;;0.36;100.00
37764;BME280;23602;51.084;7.090;2023-01-23T01:31:46;101929.34;;;0.39;100.00
37764;BME280;23602;51.084;7.090;2023-01-23T01:34:11;101930.19;;;0.39;100.00
37764;BME280;23602;51.084;7.090;2023-01-23T01:36:41;101932.72;;;0.41;100.00
37764;BME280;23602;51.084;7.090;2023-01-23T01:39:09;101934.31;;;0.43;100.00
37764;BME280;23602;51.084;7.090;2023-01-23T01:41:43;101936.03;;;0.44;100.00
37764;BME280;23602;51.084;7.090;2023-01-23T01:44:12;101940.59;;;0.42;100.00
37764;BME280;23602;51.084;7.090;2023-01-23T01:46:43;101932.84;;;0.39;100.00
37764;BME280;23602;51.084;7.090;2023-01-23T01:51:58;101934.56;;;0.40;100.00
37764;BME280;23602;51.084;7.090;2023-01-23T01:54:49;101943.53;;;0.38;100.00
37764;BME280;23602;51.084;7.090;2023-01-23T01:57:24;101948.81;;;0.38;100.00
37764;BME280;23602;51.084;7.090;2023-01-23T01:59:56;101954.00;;;0.39;100.00
37764;BME280;23602;51.084;7.090;2023-01-23T02:02:28;101954.00;;;0.39;100.00
37764;BME280;23602;51.084;7.090;2023-01-23T02:04:57;101960.13;;;0.40;100.00
37764;BME280;23602;51.084;7.090;2023-01-23T02:07:27;101961.94;;;0.39;100.00
37764;BME280;23602;51.084;7.090;2023-01-23T02:09:53;101955.72;;;0.40;100.00
37764;BME280;23602;51.084;7.090;2023-01-23T02:12:21;101962.03;;;0.38;100.00
37764;BME280;23602;51.084;7.090;2023-01-23T02:14:47;101961.06;;;0.39;100.00
37764;BME280;23602;51.084;7.090;2023-01-23T02:17:13;101958.53;;;0.37;100.00
37764;BME280;23602;51.084;7.090;2023-01-23T02:25:10;101951.53;;;0.36;100.00
37764;BME280;23602;51.084;7.090;2023-01-23T02:27:39;101960.22;;;0.38;100.00
37764;BME280;23602;51.084;7.090;2023-01-23T02:30:04;101947.97;;;0.37;100.00
37764;BME280;23602;51.084;7.090;2023-01-23T02:32:31;101953.16;;;0.39;100.00
37764;BME280;23602;51.084;7.090;2023-01-23T02:34:59;101945.41;;;0.36;100.00
37764;BME280;23602;51.084;7.090;2023-01-23T02:37:28;101948.16;;;0.34;100.00
37764;BME280;23602;51.084;7.090;2023-01-23T02:39:58;101950.81;;;0.34;100.00
37764;BME280;23602;51.084;7.090;2023-01-23T02:42:25;101952.59;;;0.34;100.00
37764;BME280;23602;51.084;7.090;2023-01-23T02:44:50;101948.16;;;0.34;100.00
37764;BME280;23602;51.084;7.090;2023-01-23T02:47:17;101956.09;;;0.34;100.00
37764;BME280;23602;51.084;7.090;2023-01-23T02:49:43;101953.44;;;0.34;100.00
37764;BME280;23602;51.084;7.090;2023-01-23T02:52:09;101951.75;;;0.33;100.00
37764;BME280;23602;51.084;7.090;2023-01-23T02:54:34;101957.25;;;0.30;100.00
37764;BME280;23602;51.084;7.090;2023-01-23T02:56:59;101961.56;;;0.31;100.00
37764;BME280;23602;51.084;7.090;2023-01-23T02:59:25;101960.84;;;0.29;100.00
37764;BME280;23602;51.084;7.090;2023-01-23T03:02:09;101954.69;;;0.29;100.00
37764;BME280;23602;51.084;7.090;2023-01-23T03:04:34;101961.03;;;0.26;100.00
37764;BME280;23602;51.084;7.090;2023-01-23T03:07:00;101954.06;;;0.25;100.00
37764;BME280;23602;51.084;7.090;2023-01-23T03:09:25;101955.19;;;0.21;100.00
37764;BME280;23602;51.084;7.090;2023-01-23T03:11:51;101964.16;;;0.19;100.00
37764;BME280;23602;51.084;7.090;2023-01-23T03:14:17;101960.88;;;0.15;100.00
37764;BME280;23602;51.084;7.090;2023-01-23T03:16:43;101967.84;;;0.16;100.00
37764;BME280;23602;51.084;7.090;2023-01-23T03:19:10;101955.88;;;0.11;100.00
37764;BME280;23602;51.084;7.090;2023-01-23T03:21:36;101970.91;;;0.10;100.00
37764;BME280;23602;51.084;7.090;2023-01-23T03:24:04;101961.28;;;0.09;100.00
37764;BME280;23602;51.084;7.090;2023-01-23T03:26:30;101962.44;;;0.05;100.00
37764;BME280;23602;51.084;7.090;2023-01-23T03:28:55;101952.03;;;0.02;100.00
37764;BME280;23602;51.084;7.090;2023-01-23T03:31:39;101961.09;;;-0.02;100.00
37764;BME280;23602;51.084;7.090;2023-01-23T03:34:07;101959.78;;;-0.09;100.00
37764;BME280;23602;51.084;7.090;2023-01-23T03:36:46;101954.06;;;-0.16;100.00
37764;BME280;23602;51.084;7.090;2023-01-23T03:39:14;101953.41;;;-0.19;100.00
37764;BME280;23602;51.084;7.090;2023-01-23T03:41:58;101962.84;;;-0.29;100.00
37764;BME280;23602;51.084;7.090;2023-01-23T03:44:24;101973.59;;;-0.32;100.00
37764;BME280;23602;51.084;7.090;2023-01-23T03:46:50;101970.94;;;-0.32;100.00
37764;BME280;23602;51.084;7.090;2023-01-23T03:49:21;101975.50;;;-0.34;100.00
37764;BME280;23602;51.084;7.090;2023-01-23T03:51:49;101982.47;;;-0.33;100.00
37764;BME280;23602;51.084;7.090;2023-01-23T03:54:20;101971.25;;;-0.37;100.00
37764;BME280;23602;51.084;7.090;2023-01-23T03:56:46;101982.66;;;-0.36;100.00
37764;BME280;23602;51.084;7.090;2023-01-23T03:59:11;101987.28;;;-0.40;100.00
37764;BME280;23602;51.084;7.090;2023-01-23T04:01:38;101990.38;;;-0.47;100.00
37764;BME280;23602;51.084;7.090;2023-01-23T04:04:04;101994.63;;;-0.45;100.00
37764;BME280;23602;51.084;7.090;2023-01-23T04:06:29;101994.00;;;-0.48;100.00
37764;BME280;23602;51.084;7.090;2023-01-23T04:08:54;101998.72;;;-0.53;100.00
37764;BME280;23602;51.084;7.090;2023-01-23T04:11:22;101991.16;;;-0.59;100.00
37764;BME280;23602;51.084;7.090;2023-01-23T04:13:47;101987.94;;;-0.65;100.00
37764;BME280;23602;51.084;7.090;2023-01-23T04:16:13;101981.91;;;-0.67;100.00
37764;BME280;23602;51.084;7.090;2023-01-23T04:18:38;101990.19;;;-0.73;100.00
37764;BME280;23602;51.084;7.090;2023-01-23T04:21:03;101994.88;;;-0.78;100.00
37764;BME280;23602;51.084;7.090;2023-01-23T04:23:29;101993.00;;;-0.76;100.00
37764;BME280;23602;51.084;7.090;2023-01-23T04:25:55;101980.75;;;-0.77;100.00
37764;BME280;23602;51.084;7.090;2023-01-23T04:28:20;101983.59;;;-0.80;100.00
37764;BME280;23602;51.084;7.090;2023-01-23T04:30:53;101981.69;;;-0.78;100.00
37764;BME280;23602;51.084;7.090;2023-01-23T04:33:18;101985.72;;;-0.86;100.00
37764;BME280;23602;51.084;7.090;2023-01-23T04:35:54;102002.41;;;-0.86;100.00
37764;BME280;23602;51.084;7.090;2023-01-23T04:38:20;102005.88;;;-0.99;100.00
37764;BME280;23602;51.084;7.090;2023-01-23T04:40:45;101998.50;;;-1.08;100.00
37764;BME280;23602;51.084;7.090;2023-01-23T04:43:12;102005.22;;;-1.03;100.00
37764;BME280;23602;51.084;7.090;2023-01-23T04:45:37;102019.91;;;-0.99;100.00
37764;BME280;23602;51.084;7.090;2023-01-23T04:48:05;102021.16;;;-0.90;100.00
37764;BME280;23602;51.084;7.090;2023-01-23T04:50:31;102026.16;;;-0.86;100.00
37764;BME280;23602;51.084;7.090;2023-01-23T04:53:06;102026.84;;;-0.82;100.00
37764;BME280;23602;51.084;7.090;2023-01-23T04:55:41;102026.56;;;-0.78;100.00
37764;BME280;23602;51.084;7.090;2023-01-23T04:58:06;102023.00;;;-0.77;100.00
37764;BME280;23602;51.084;7.090;2023-01-23T05:00:35;102031.56;;;-0.73;100.00
37764;BME280;23602;51.084;7.090;2023-01-23T05:03:00;102024.84;;;-0.79;100.00
37764;BME280;23602;51.084;7.090;2023-01-23T05:05:26;102017.72;;;-0.77;100.00
37764;BME280;23602;51.084;7.090;2023-01-23T05:07:55;102016.84;;;-0.77;100.00
37764;BME280;23602;51.084;7.090;2023-01-23T05:10:29;102025.72;;;-0.78;100.00
37764;BME280;23602;51.084;7.090;2023-01-23T05:12:54;102020.59;;;-0.81;100.00
37764;BME280;23602;51.084;7.090;2023-01-23T05:15:20;102023.06;;;-0.78;100.00
37764;BME280;23602;51.084;7.090;2023-01-23T05:17:46;102024.09;;;-0.81;100.00
37764;BME280;23602;51.084;7.090;2023-01-23T05:20:14;102018.81;;;-0.81;100.00
37764;BME280;23602;51.084;7.090;2023-01-23T05:22:39;102018.81;;;-0.81;100.00
37764;BME280;23602;51.084;7.090;2023-01-23T05:25:25;102030.91;;;-0.77;100.00
37764;BME280;23602;51.084;7.090;2023-01-23T05:27:51;102029.78;;;-0.73;100.00
37764;BME280;23602;51.084;7.090;2023-01-23T05:30:19;102037.22;;;-0.79;100.00
37764;BME280;23602;51.084;7.090;2023-01-23T05:32:45;102031.25;;;-0.83;100.00
37764;BME280;23602;51.084;7.090;2023-01-23T05:35:10;102030.69;;;-0.88;100.00
37764;BME280;23602;51.084;7.090;2023-01-23T05:37:35;102047.66;;;-0.92;100.00
37764;BME280;23602;51.084;7.090;2023-01-23T05:40:01;102048.75;;;-0.96;100.00
37764;BME280;23602;51.084;7.090;2023-01-23T05:42:26;102047.81;;;-0.95;100.00
37764;BME280;23602;51.084;7.090;2023-01-23T05:44:52;102047.66;;;-0.92;100.00
37764;BME280;23602;51.084;7.090;2023-01-23T05:47:17;102045.59;;;-0.87;100.00
37764;BME280;23602;51.084;7.090;2023-01-23T05:49:42;102048.69;;;-0.94;100.00
37764;BME280;23602;51.084;7.090;2023-01-23T05:52:09;102046.97;;;-0.95;100.00
37764;BME280;23602;51.084;7.090;2023-01-23T05:54:35;102051.13;;;-0.91;100.00
37764;BME280;23602;51.084;7.090;2023-01-23T05:57:00;102055.69;;;-0.79;100.00
37764;BME280;23602;51.084;7.090;2023-01-23T05:59:25;102065.56;;;-0.83;100.00
37764;BME280;23602;51.084;7.090;2023-01-23T06:01:51;102060.75;;;-0.90;100.00
37764;BME280;23602;51.084;7.090;2023-01-23T06:04:16;102057.53;;;-0.95;100.00
37764;BME280;23602;51.084;7.090;2023-01-23T06:06:43;102063.66;;;-0.95;100.00
37764;BME280;23602;51.084;7.090;2023-01-23T06:09:08;102063.94;;;-0.99;100.00
37764;BME280;23602;51.084;7.090;2023-01-23T06:11:33;102056.53;;;-1.08;100.00
37764;BME280;23602;51.084;7.090;2023-01-23T06:13:59;102057.56;;;-1.11;100.00
37764;BME280;23602;51.084;7.090;2023-01-23T06:16:26;102055.03;;;-1.12;100.00
37764;BME280;23602;51.084;7.090;2023-01-23T06:18:52;102060.38;;;-1.14;100.00
37764;BME280;23602;51.084;7.090;2023-01-23T06:21:17;102068.38;;;-1.15;100.00
37764;BME280;23602;51.084;7.090;2023-01-23T06:23:43;102072.72;;;-1.14;100.00
37764;BME280;23602;51.084;7.090;2023-01-23T06:26:10;102076.97;;;-1.12;100.00
37764;BME280;23602;51.084;7.090;2023-01-23T06:28:35;102082.84;;;-1.07;100.00
37764;BME280;23602;51.084;7.090;2023-01-23T06:31:01;102094.75;;;-1.00;100.00
37764;BME280;23602;51.084;7.090;2023-01-23T06:33:26;102106.53;;;-0.91;100.00
37764;BME280;23602;51.084;7.090;2023-01-23T06:35:58;102120.13;;;-0.83;100.00
37764;BME280;23602;51.084;7.090;2023-01-23T06:38:24;102136.13;;;-0.71;100.00
37764;BME280;23602;51.084;7.090;2023-01-23T06:40:49;102145.47;;;-0.65;100.00
37764;BME280;23602;51.084;7.090;2023-01-23T06:43:14;102144.28;;;-0.59;100.00
37764;BME280;23602;51.084;7.090;2023-01-23T06:45:42;102150.03;;;-0.53;100.00
37764;BME280;23602;51.084;7.090;2023-01-23T06:48:08;102154.28;;;-0.50;100.00
37764;BME280;23602;51.084;7.090;2023-01-23T06:50:33;102161.75;;;-0.43;100.00
37764;BME280;23602;51.084;7.090;2023-01-23T06:52:58;102173.00;;;-0.39;100.00
37764;BME280;23602;51.084;7.090;2023-01-23T06:55:23;102180.06;;;-0.40;100.00
37764;BME280;23602;51.084;7.090;2023-01-23T06:57:49;102184.50;;;-0.40;100.00
37764;BME280;23602;51.084;7.090;2023-01-23T07:00:14;102182.66;;;-0.38;100.00
37764;BME280;23602;51.084;7.090;2023-01-23T07:02:39;102183.47;;;-0.38;100.00
37764;BME280;23602;51.084;7.090;2023-01-23T07:05:05;102186.03;;;-0.36;100.00
37764;BME280;23602;51.084;7.090;2023-01-23T07:07:30;102181.63;;;-0.36;100.00
37764;BME280;23602;51.084;7.090;2023-01-23T07:09:56;102173.41;;;-0.31;100.00
37764;BME280;23602;51.084;7.090;2023-01-23T07:12:21;102179.44;;;-0.29;100.00
37764;BME280;23602;51.084;7.090;2023-01-23T07:14:46;102192.38;;;-0.25;100.00
37764;BME280;23602;51.084;7.090;2023-01-23T07:17:12;102195.88;;;-0.24;100.00
37764;BME280;23602;51.084;7.090;2023-01-23T07:19:37;102191.34;;;-0.22;100.00
37764;BME280;23602;51.084;7.090;2023-01-23T07:22:02;102193.06;;;-0.21;100.00
37764;BME280;23602;51.084;7.090;2023-01-23T07:24:28;102197.31;;;-0.19;100.00
37764;BME280;23602;51.084;7.090;2023-01-23T07:26:55;102189.28;;;-0.17;100.00
37764;BME280;23602;51.084;7.090;2023-01-23T07:29:21;102196.94;;;-0.13;100.00
37764;BME280;23602;51.084;7.090;2023-01-23T07:31:49;102199.31;;;-0.08;100.00
37764;BME280;23602;51.084;7.090;2023-01-23T07:34:14;102205.34;;;-0.06;100.00
37764;BME280;23602;51.084;7.090;2023-01-23T07:36:39;102195.66;;;-0.06;100.00
37764;BME280;23602;51.084;7.090;2023-01-23T07:39:05;102200.72;;;-0.03;100.00
37764;BME280;23602;51.084;7.090;2023-01-23T07:41:30;102195.44;;;-0.03;100.00
37764;BME280;23602;51.084;7.090;2023-01-23T07:43:56;102196.13;;;0.01;100.00
37764;BME280;23602;51.084;7.090;2023-01-23T07:46:21;102196.78;;;0.05;100.00
37764;BME280;23602;51.084;7.090;2023-01-23T07:48:49;102196.78;;;0.05;100.00
37764;BME280;23602;51.084;7.090;2023-01-23T07:51:14;102192.16;;;0.08;100.00
37764;BME280;23602;51.084;7.090;2023-01-23T07:53:40;102189.34;;;0.11;100.00
37764;BME280;23602;51.084;7.090;2023-01-23T07:56:05;102195.19;;;0.16;100.00
37764;BME280;23602;51.084;7.090;2023-01-23T07:58:31;102193.41;;;0.17;100.00
37764;BME280;23602;51.084;7.090;2023-01-23T08:00:56;102199.38;;;0.20;100.00
37764;BME280;23602;51.084;7.090;2023-01-23T08:03:21;102190.47;;;0.21;100.00
37764;BME280;23602;51.084;7.090;2023-01-23T08:05:48;102185.00;;;0.24;100.00
37764;BME280;23602;51.084;7.090;2023-01-23T08:08:13;102181.44;;;0.25;100.00
37764;BME280;23602;51.084;7.090;2023-01-23T08:10:39;102176.91;;;0.27;100.00
37764;BME280;23602;51.084;7.090;2023-01-23T08:13:07;102170.47;;;0.31;100.00
37764;BME280;23602;51.084;7.090;2023-01-23T08:15:33;102168.38;;;0.36;100.00
37764;BME280;23602;51.084;7.090;2023-01-23T08:17:58;102172.63;;;0.39;100.00
37764;BME280;23602;51.084;7.090;2023-01-23T08:20:23;102187.47;;;0.41;100.00
37764;BME280;23602;51.084;7.090;2023-01-23T08:22:49;102182.91;;;0.43;100.00
37764;BME280;23602;51.084;7.090;2023-01-23T08:25:14;102181.81;;;0.47;100.00
37764;BME280;23602;51.084;7.090;2023-01-23T08:27:40;102183.28;;;0.51;100.00
37764;BME280;23602;51.084;7.090;2023-01-23T08:30:05;102183.97;;;0.55;100.00
37764;BME280;23602;51.084;7.090;2023-01-23T08:32:30;102183.00;;;0.56;100.00
37764;BME280;23602;51.084;7.090;2023-01-23T08:34:56;102178.38;;;0.59;100.00
37764;BME280;23602;51.084;7.090;2023-01-23T08:37:30;102169.31;;;0.63;100.00
37764;BME280;23602;51.084;7.090;2023-01-23T08:39:58;102174.50;;;0.65;100.00
37764;BME280;23602;51.084;7.090;2023-01-23T08:42:23;102170.06;;;0.66;100.00
37764;BME280;23602;51.084;7.090;2023-01-23T08:44:48;102166.47;;;0.67;100.00
37764;BME280;23602;51.084;7.090;2023-01-23T08:47:14;102176.84;;;0.70;100.00
37764;BME280;23602;51.084;7.090;2023-01-23T08:49:39;102170.53;;;0.72;100.00
37764;BME280;23602;51.084;7.090;2023-01-23T08:52:04;102155.31;;;0.76;100.00
37764;BME280;23602;51.084;7.090;2023-01-23T08:54:30;102163.16;;;0.77;100.00
37764;BME280;23602;51.084;7.090;2023-01-23T08:56:55;102153.22;;;0.81;100.00
37764;BME280;23602;51.084;7.090;2023-01-23T08:59:20;102153.03;;;0.84;100.00
37764;BME280;23602;51.084;7.090;2023-01-23T09:01:46;102158.09;;;0.87;100.00
37764;BME280;23602;51.084;7.090;2023-01-23T09:04:12;102142.16;;;0.88;100.00
37764;BME280;23602;51.084;7.090;2023-01-23T09:06:37;102148.84;;;0.94;100.00
37764;BME280;23602;51.084;7.090;2023-01-23T09:09:03;102153.16;;;0.95;100.00
37764;BME280;23602;51.084;7.090;2023-01-23T09:11:30;102153.72;;;1.00;100.00
37764;BME280;23602;51.084;7.090;2023-01-23T09:13:56;102150.13;;;1.01;100.00
37764;BME280;23602;51.084;7.090;2023-01-23T09:16:21;102144.72;;;1.02;100.00
37764;BME280;23602;51.084;7.090;2023-01-23T09:18:47;102144.44;;;1.07;100.00
37764;BME280;23602;51.084;7.090;2023-01-23T09:21:13;102147.63;;;1.12;100.00
37764;BME280;23602;51.084;7.090;2023-01-23T09:23:40;102142.31;;;1.12;100.00
37764;BME280;23602;51.084;7.090;2023-01-23T09:26:06;102135.78;;;1.17;100.00
37764;BME280;23602;51.084;7.090;2023-01-23T09:28:34;102138.16;;;1.22;100.00
37764;BME280;23602;51.084;7.090;2023-01-23T09:31:03;102133.59;;;1.24;100.00
37764;BME280;23602;51.084;7.090;2023-01-23T09:33:28;102127.13;;;1.28;100.00
37764;BME280;23602;51.084;7.090;2023-01-23T09:35:54;102131.31;;;1.32;100.00
37764;BME280;23602;51.084;7.090;2023-01-23T09:38:19;102132.78;;;1.36;100.00
37764;BME280;23602;51.084;7.090;2023-01-23T09:40:47;102122.94;;;1.38;100.00
37764;BME280;23602;51.084;7.090;2023-01-23T09:48:47;102133.97;;;1.45;100.00
37764;BME280;23602;51.084;7.090;2023-01-23T09:51:25;102131.41;;;1.43;100.00
37764;BME280;23602;51.084;7.090;2023-01-23T09:53:55;102133.97;;;1.45;100.00
37764;BME280;23602;51.084;7.090;2023-01-23T09:59:02;102121.81;;;1.55;100.00
37764;BME280;23602;51.084;7.090;2023-01-23T10:01:31;102119.44;;;1.50;100.00
37764;BME280;23602;51.084;7.090;2023-01-23T10:03:57;102117.34;;;1.55;100.00
37764;BME280;23602;51.084;7.090;2023-01-23T10:06:25;102113.44;;;1.61;100.00
37764;BME280;23602;51.084;7.090;2023-01-23T10:11:38;102103.38;;;1.66;100.00
37764;BME280;23602;51.084;7.090;2023-01-23T10:16:44;102100.19;;;1.73;100.00
37764;BME280;23602;51.084;7.090;2023-01-23T10:19:30;102097.25;;;1.78;100.00
37764;BME280;23602;51.084;7.090;2023-01-23T10:22:03;102095.22;;;1.81;100.00
37764;BME280;23602;51.084;7.090;2023-01-23T10:24:37;102104.88;;;1.82;100.00
37764;BME280;23602;51.084;7.090;2023-01-23T10:29:43;102102.03;;;1.85;100.00
37764;BME280;23602;51.084;7.090;2023-01-23T10:32:22;102094.81;;;1.87;100.00
37764;BME280;23602;51.084;7.090;2023-01-23T10:35:01;102085.69;;;1.91;100.00
37764;BME280;23602;51.084;7.090;2023-01-23T10:37:39;102086.66;;;1.90;100.00
37764;BME280;23602;51.084;7.090;2023-01-23T10:42:35;102074.53;;;1.86;100.00
37764;BME280;23602;51.084;7.090;2023-01-23T10:45:01;102067.97;;;1.92;100.00
37764;BME280;23602;51.084;7.090;2023-01-23T10:49:52;102071.78;;;2.01;100.00
37764;BME280;23602;51.084;7.090;2023-01-23T10:54:54;102069.13;;;2.13;100.00
37764;BME280;23602;51.084;7.090;2023-01-23T10:57:21;102063.69;;;2.15;100.00
37764;BME280;23602;51.084;7.090;2023-01-23T10:59:50;102062.44;;;2.20;100.00
37764;BME280;23602;51.084;7.090;2023-01-23T11:02:20;102054.25;;;2.23;100.00
37764;BME280;23602;51.084;7.090;2023-01-23T11:04:47;102060.16;;;2.27;100.00
37764;BME280;23602;51.084;7.090;2023-01-23T11:07:16;102054.44;;;2.33;100.00
37764;BME280;23602;51.084;7.090;2023-01-23T11:09:47;102056.22;;;2.32;100.00
37764;BME280;23602;51.084;7.090;2023-01-23T11:12:17;102052.50;;;2.35;100.00
37764;BME280;23602;51.084;7.090;2023-01-23T11:14:43;102049.94;;;2.46;100.00
37764;BME280;23602;51.084;7.090;2023-01-23T11:17:19;102047.91;;;2.49;100.00
37764;BME280;23602;51.084;7.090;2023-01-23T11:19:45;102039.28;;;2.59;100.00
37764;BME280;23602;51.084;7.090;2023-01-23T11:22:31;102041.75;;;2.73;100.00
37764;BME280;23602;51.084;7.090;2023-01-23T11:24:57;102021.72;;;2.69;100.00
37764;BME280;23602;51.084;7.090;2023-01-23T11:27:23;102018.72;;;2.73;100.00
37764;BME280;23602;51.084;7.090;2023-01-23T11:32:28;102013.19;;;2.76;100.00
37764;BME280;23602;51.084;7.090;2023-01-23T11:35:03;102008.84;;;2.75;100.00
37764;BME280;23602;51.084;7.090;2023-01-23T11:37:33;102003.16;;;2.80;100.00
37764;BME280;23602;51.084;7.090;2023-01-23T11:40:02;101994.59;;;2.76;100.00
37764;BME280;23602;51.084;7.090;2023-01-23T11:42:29;101994.59;;;2.76;100.00
37764;BME280;23602;51.084;7.090;2023-01-23T11:44:57;101981.72;;;2.83;100.00
37764;BME280;23602;51.084;7.090;2023-01-23T11:47:42;101994.41;;;2.90;100.00
37764;BME280;23602;51.084;7.090;2023-01-23T11:53:40;101973.53;;;2.86;100.00
37764;BME280;23602;51.084;7.090;2023-01-23T11:55:57;101970.28;;;2.93;100.00
37764;BME280;23602;51.084;7.090;2023-01-23T11:58:35;101956.94;;;3.06;100.00
37764;BME280;23602;51.084;7.090;2023-01-23T12:01:14;101958.28;;;3.11;100.00
37764;BME280;23602;51.084;7.090;2023-01-23T12:17:00;101965.59;;;2.97;100.00
37764;BME280;23602;51.084;7.090;2023-01-23T12:27:34;101969.13;;;2.97;100.00
37764;BME280;23602;51.084;7.090;2023-01-23T12:32:40;101974.38;;;2.86;100.00
37764;BME280;23602;51.084;7.090;2023-01-23T12:37:49;101981.38;;;2.87;100.00
37764;BME280;23602;51.084;7.090;2023-01-23T12:40:23;101968.22;;;2.86;100.00
37764;BME280;23602;51.084;7.090;2023-01-23T12:42:53;101972.91;;;2.82;100.00
37764;BME280;23602;51.084;7.090;2023-01-23T12:45:20;101976.63;;;2.80;100.00
37764;BME280;23602;51.084;7.090;2023-01-23T12:48:02;101979.28;;;2.80;100.00
37764;BME280;23602;51.084;7.090;2023-01-23T12:53:08;101976.59;;;2.69;100.00
37764;BME280;23602;51.084;7.090;2023-01-23T12:55:39;101966.72;;;2.71;100.00
37764;BME280;23602;51.084;7.090;2023-01-23T12:58:14;101968.28;;;2.73;100.00
37764;BME280;23602;51.084;7.090;2023-01-23T13:00:43;101973.16;;;2.79;100.00
37764;BME280;23602;51.084;7.090;2023-01-23T13:03:26;101975.31;;;2.74;100.00
37764;BME280;23602;51.084;7.090;2023-01-23T13:13:53;101982.97;;;2.90;100.00
37764;BME280;23602;51.084;7.090;2023-01-23T13:16:46;101987.94;;;2.94;100.00
37764;BME280;23602;51.084;7.090;2023-01-23T13:19:22;101989.84;;;2.92;100.00
37764;BME280;23602;51.084;7.090;2023-01-23T13:22:26;101993.69;;;2.88;100.00
37764;BME280;23602;51.084;7.090;2023-01-23T13:24:53;101999.44;;;2.82;100.00
37764;BME280;23602;51.084;7.090;2023-01-23T13:32:49;102003.31;;;2.78;100.00
37764;BME280;23602;51.084;7.090;2023-01-23T13:37:59;102002.41;;;2.67;100.00
37764;BME280;23602;51.084;7.090;2023-01-23T13:40:24;102012.06;;;2.68;100.00
37764;BME280;23602;51.084;7.090;2023-01-23T13:42:49;102019.94;;;2.69;100.00
37764;BME280;23602;51.084;7.090;2023-01-23T13:48:04;102024.81;;;2.63;100.00
37764;BME280;23602;51.084;7.090;2023-01-23T13:50:44;102017.94;;;2.60;100.00
37764;BME280;23602;51.084;7.090;2023-01-23T13:53:21;102022.28;;;2.61;100.00
37764;BME280;23602;51.084;7.090;2023-01-23T13:56:06;102011.91;;;2.58;100.00
37764;BME280;23602;51.084;7.090;2023-01-23T13:58:54;102018.28;;;2.55;100.00
37764;BME280;23602;51.084;7.090;2023-01-23T14:01:20;102017.63;;;2.52;100.00
37764;BME280;23602;51.084;7.090;2023-01-23T14:04:17;102012.34;;;2.52;100.00
37764;BME280;23602;51.084;7.090;2023-01-23T14:07:02;102028.50;;;2.49;100.00
37764;BME280;23602;51.084;7.090;2023-01-23T14:09:29;102021.72;;;2.45;100.00
37764;BME280;23602;51.084;7.090;2023-01-23T14:11:55;102016.31;;;2.46;100.00
37764;BME280;23602;51.084;7.090;2023-01-23T14:14:21;102023.19;;;2.49;100.00
37764;BME280;23602;51.084;7.090;2023-01-23T14:17:04;102026.16;;;2.44;100.00
37764;BME280;23602;51.084;7.090;2023-01-23T14:19:30;102028.00;;;2.44;100.00